sensor_id;sensor_type;location;lat;lon;timestamp;temperature;humidity
13606;DHT22;6874;52.084;5.090;2023-12-20T00:00:49;6.90;99.90
13606;DHT22;6874;52.084;5.090;2023-12-20T00:03:14;6.90;99.90
13606;DHT22;6874;52.084;5.090;2023-12-20T00:05:40;6.90;99.90
13606;DHT22;6874;52.084;5.090;2023-12-20T00:08:06;6.80;99.90
13606;DHT22;6874;52.084;5.090;2023-12-20T00:10:32;6.90;99.90
13606;DHT22;6874;52.084;5.090;2023-12-20T00:12:57;6.90;99.90
13606;DHT22;6874;52.084;5.090;2023-12-20T00:15:23;6.80;99.90
13606;DHT22;6874;52.084;5.090;2023-12-20T00:17:48;6.80;99.90
13606;DHT22;6874;52.084;5.090;2023-12-20T00:20:14;6.80;99.90
13606;DHT22;6874;52.084;5.090;2023-12-20T00:22:39;6.70;99.90
13606;DHT22;6874;52.084;5.090;2023-12-20T00:25:05;6.70;99.90
13606;DHT22;6874;52.084;5.090;2023-12-20T00:27:31;6.70;99.90
13606;DHT22;6874;52.084;5.090;2023-12-20T00:29:56;6.70;99.90
13606;DHT22;6874;52.084;5.090;2023-12-20T00:32:22;6.70;99.90
13606;DHT22;6874;52.084;5.090;2023-12-20T00:34:47;6.70;99.90
13606;DHT22;6874;52.084;5.090;2023-12-20T00:37:13;6.70;99.90
13606;DHT22;6874;52.084;5.090;2023-12-20T00:39:38;6.60;99.90
13606;DHT22;6874;52.084;5.090;2023-12-20T00:42:04;6.60;99.90
13606;DHT22;6874;52.084;5.090;2023-12-20T00:44:30;6.60;99.90
13606;DHT22;6874;52.084;5.090;2023-12-20T00:46:55;6.60;99.90
13606;DHT22;6874;52.084;5.090;2023-12-20T00:49:21;6.60;99.90
13606;DHT22;6874;52.084;5.090;2023-12-20T00:51:46;6.60;99.90
13606;DHT22;6874;52.084;5.090;2023-12-20T00:54:13;6.50;99.90
13606;DHT22;6874;52.084;5.090;2023-12-20T00:56:39;6.60;99.90
13606;DHT22;6874;52.084;5.090;2023-12-20T00:59:04;6.50;99.90
13606;DHT22;6874;52.084;5.090;2023-12-20T01:01:30;6.50;99.90
13606;DHT22;6874;52.084;5.090;2023-12-20T01:03:55;6.50;99.90
13606;DHT22;6874;52.084;5.090;2023-12-20T01:06:21;6.50;99.90
13606;DHT22;6874;52.084;5.090;2023-12-20T01:08:46;6.50;99.90
13606;DHT22;6874;52.084;5.090;2023-12-20T01:11:12;6.50;99.90
13606;DHT22;6874;52.084;5.090;2023-12-20T01:13:37;6.40;99.90
13606;DHT22;6874;52.084;5.090;2023-12-20T01:16:03;6.40;99.90
13606;DHT22;6874;52.084;5.090;2023-12-20T01:18:29;6.40;99.90
13606;DHT22;6874;52.084;5.090;2023-12-20T01:20:55;6.40;99.90
13606;DHT22;6874;52.084;5.090;2023-12-20T01:23:20;6.40;99.90
13606;DHT22;6874;52.084;5.090;2023-12-20T01:25:46;6.40;99.90
13606;DHT22;6874;52.084;5.090;2023-12-20T01:28:11;6.40;99.90
13606;DHT22;6874;52.084;5.090;2023-12-20T01:30:37;6.40;99.90
13606;DHT22;6874;52.084;5.090;2023-12-20T01:33:03;6.40;99.90
13606;DHT22;6874;52.084;5.090;2023-12-20T01:35:28;6.40;99.90
13606;DHT22;6874;52.084;5.090;2023-12-20T01:37:54;6.40;99.90
13606;DHT22;6874;52.084;5.090;2023-12-20T01:40:23;6.40;99.90
13606;DHT22;6874;52.084;5.090;2023-12-20T01:42:58;6.40;99.90
13606;DHT22;6874;52.084;5.090;2023-12-20T01:45:24;6.40;99.90
13606;DHT22;6874;52.084;5.090;2023-12-20T01:47:50;6.40;99.90
13606;DHT22;6874;52.084;5.090;2023-12-20T01:50:16;6.40;99.90
13606;DHT22;6874;52.084;5.090;2023-12-20T01:52:42;6.30;99.90
13606;DHT22;6874;52.084;5.090;2023-12-20T01:55:09;6.30;99.90
13606;DHT22;6874;52.084;5.090;2023-12-20T01:57:40;6.30;99.90
13606;DHT22;6874;52.084;5.090;2023-12-20T02:00:06;6.40;99.90
13606;DHT22;6874;52.084;5.090;2023-12-20T02:02:33;6.40;99.90
13606;DHT22;6874;52.084;5.090;2023-12-20T02:04:59;6.30;99.90
13606;DHT22;6874;52.084;5.090;2023-12-20T02:07:25;6.30;99.90
13606;DHT22;6874;52.084;5.090;2023-12-20T02:09:52;6.30;99.90
13606;DHT22;6874;52.084;5.090;2023-12-20T02:12:18;6.30;99.90
13606;DHT22;6874;52.084;5.090;2023-12-20T02:14:44;6.30;99.90
13606;DHT22;6874;52.084;5.090;2023-12-20T02:17:09;6.30;99.90
13606;DHT22;6874;52.084;5.090;2023-12-20T02:19:35;6.30;99.90
13606;DHT22;6874;52.084;5.090;2023-12-20T02:22:10;6.30;99.90
13606;DHT22;6874;52.084;5.090;2023-12-20T02:24:36;6.30;99.90
13606;DHT22;6874;52.084;5.090;2023-12-20T02:27:01;6.30;99.90
13606;DHT22;6874;52.084;5.090;2023-12-20T02:29:28;6.30;99.90
13606;DHT22;6874;52.084;5.090;2023-12-20T02:31:53;6.30;99.90
13606;DHT22;6874;52.084;5.090;2023-12-20T02:34:19;6.30;99.90
13606;DHT22;6874;52.084;5.090;2023-12-20T02:36:44;6.40;99.90
13606;DHT22;6874;52.084;5.090;2023-12-20T02:39:10;6.30;99.90
13606;DHT22;6874;52.084;5.090;2023-12-20T02:41:35;6.30;99.90
13606;DHT22;6874;52.084;5.090;2023-12-20T02:44:03;6.30;99.90
13606;DHT22;6874;52.084;5.090;2023-12-20T02:46:28;6.40;99.90
13606;DHT22;6874;52.084;5.090;2023-12-20T02:48:54;6.30;99.90
13606;DHT22;6874;52.084;5.090;2023-12-20T02:51:20;6.30;99.90
13606;DHT22;6874;52.084;5.090;2023-12-20T02:53:46;6.30;99.90
13606;DHT22;6874;52.084;5.090;2023-12-20T02:56:11;6.30;99.90
13606;DHT22;6874;52.084;5.090;2023-12-20T02:58:37;6.40;99.90
13606;DHT22;6874;52.084;5.090;2023-12-20T03:01:02;6.30;99.90
13606;DHT22;6874;52.084;5.090;2023-12-20T03:03:28;6.40;99.90
13606;DHT22;6874;52.084;5.090;2023-12-20T03:05:53;6.40;99.90
13606;DHT22;6874;52.084;5.090;2023-12-20T03:08:19;6.40;99.90
13606;DHT22;6874;52.084;5.090;2023-12-20T03:10:44;6.40;99.90
13606;DHT22;6874;52.084;5.090;2023-12-20T03:13:10;6.40;99.90
13606;DHT22;6874;52.084;5.090;2023-12-20T03:15:36;6.40;99.90
13606;DHT22;6874;52.084;5.090;2023-12-20T03:18:02;6.40;99.90
13606;DHT22;6874;52.084;5.090;2023-12-20T03:20:28;6.40;99.90
13606;DHT22;6874;52.084;5.090;2023-12-20T03:22:53;6.40;99.90
13606;DHT22;6874;52.084;5.090;2023-12-20T03:25:19;6.40;99.90
13606;DHT22;6874;52.084;5.090;2023-12-20T03:27:44;6.40;99.90
13606;DHT22;6874;52.084;5.090;2023-12-20T03:30:10;6.40;99.90
13606;DHT22;6874;52.084;5.090;2023-12-20T03:32:38;6.40;99.90
13606;DHT22;6874;52.084;5.090;2023-12-20T03:35:03;6.50;99.90
13606;DHT22;6874;52.084;5.090;2023-12-20T03:37:29;6.40;99.90
13606;DHT22;6874;52.084;5.090;2023-12-20T03:39:54;6.40;99.90
13606;DHT22;6874;52.084;5.090;2023-12-20T03:42:20;6.40;99.90
13606;DHT22;6874;52.084;5.090;2023-12-20T03:44:46;6.40;99.90
13606;DHT22;6874;52.084;5.090;2023-12-20T03:47:11;6.40;99.90
13606;DHT22;6874;52.084;5.090;2023-12-20T03:49:37;6.40;99.90
13606;DHT22;6874;52.084;5.090;2023-12-20T03:52:04;6.50;99.90
13606;DHT22;6874;52.084;5.090;2023-12-20T03:54:30;6.40;99.90
13606;DHT22;6874;52.084;5.090;2023-12-20T03:56:55;6.40;99.90
13606;DHT22;6874;52.084;5.090;2023-12-20T03:59:21;6.50;99.90
13606;DHT22;6874;52.084;5.090;2023-12-20T04:01:46;6.40;99.90
13606;DHT22;6874;52.084;5.090;2023-12-20T04:04:13;6.40;99.90
13606;DHT22;6874;52.084;5.090;2023-12-20T04:06:39;6.40;99.90
13606;DHT22;6874;52.084;5.090;2023-12-20T04:09:05;6.40;99.90
13606;DHT22;6874;52.084;5.090;2023-12-20T04:11:30;6.40;99.90
13606;DHT22;6874;52.084;5.090;2023-12-20T04:13:56;6.40;99.90
13606;DHT22;6874;52.084;5.090;2023-12-20T04:16:22;6.40;99.90
13606;DHT22;6874;52.084;5.090;2023-12-20T04:18:47;6.40;99.90
13606;DHT22;6874;52.084;5.090;2023-12-20T04:21:13;6.40;99.90
13606;DHT22;6874;52.084;5.090;2023-12-20T04:23:38;6.50;99.90
13606;DHT22;6874;52.084;5.090;2023-12-20T04:26:04;6.50;99.90
13606;DHT22;6874;52.084;5.090;2023-12-20T04:28:29;6.50;99.90
13606;DHT22;6874;52.084;5.090;2023-12-20T04:30:56;6.50;99.90
13606;DHT22;6874;52.084;5.090;2023-12-20T04:33:22;6.50;99.90
13606;DHT22;6874;52.084;5.090;2023-12-20T04:35:48;6.50;99.90
13606;DHT22;6874;52.084;5.090;2023-12-20T04:38:13;6.50;99.90
13606;DHT22;6874;52.084;5.090;2023-12-20T04:40:39;6.50;99.90
13606;DHT22;6874;52.084;5.090;2023-12-20T04:43:06;6.50;99.90
13606;DHT22;6874;52.084;5.090;2023-12-20T04:45:32;6.50;99.90
13606;DHT22;6874;52.084;5.090;2023-12-20T04:47:57;6.50;99.90
13606;DHT22;6874;52.084;5.090;2023-12-20T04:50:23;6.50;99.90
13606;DHT22;6874;52.084;5.090;2023-12-20T04:52:49;6.50;99.90
13606;DHT22;6874;52.084;5.090;2023-12-20T04:55:14;6.50;99.90
13606;DHT22;6874;52.084;5.090;2023-12-20T04:57:40;6.50;99.90
13606;DHT22;6874;52.084;5.090;2023-12-20T05:00:06;6.50;99.90
13606;DHT22;6874;52.084;5.090;2023-12-20T05:02:34;6.50;99.90
13606;DHT22;6874;52.084;5.090;2023-12-20T05:04:59;6.50;99.90
13606;DHT22;6874;52.084;5.090;2023-12-20T05:07:25;6.50;99.90
13606;DHT22;6874;52.084;5.090;2023-12-20T05:09:50;6.50;99.90
13606;DHT22;6874;52.084;5.090;2023-12-20T05:12:16;6.50;99.90
13606;DHT22;6874;52.084;5.090;2023-12-20T05:14:41;6.50;99.90
13606;DHT22;6874;52.084;5.090;2023-12-20T05:17:07;6.50;99.90
13606;DHT22;6874;52.084;5.090;2023-12-20T05:19:33;6.50;99.90
13606;DHT22;6874;52.084;5.090;2023-12-20T05:22:01;6.50;99.90
13606;DHT22;6874;52.084;5.090;2023-12-20T05:24:27;6.50;99.90
13606;DHT22;6874;52.084;5.090;2023-12-20T05:26:52;6.50;99.90
13606;DHT22;6874;52.084;5.090;2023-12-20T05:29:18;6.60;99.90
13606;DHT22;6874;52.084;5.090;2023-12-20T05:31:43;6.50;99.90
13606;DHT22;6874;52.084;5.090;2023-12-20T05:34:09;6.60;99.90
13606;DHT22;6874;52.084;5.090;2023-12-20T05:36:35;6.60;99.90
13606;DHT22;6874;52.084;5.090;2023-12-20T05:39:00;6.60;99.90
13606;DHT22;6874;52.084;5.090;2023-12-20T05:41:26;6.60;99.90
13606;DHT22;6874;52.084;5.090;2023-12-20T05:43:51;6.60;99.90
13606;DHT22;6874;52.084;5.090;2023-12-20T05:46:17;6.60;99.90
13606;DHT22;6874;52.084;5.090;2023-12-20T05:48:42;6.60;99.90
13606;DHT22;6874;52.084;5.090;2023-12-20T05:51:11;6.60;99.90
13606;DHT22;6874;52.084;5.090;2023-12-20T05:53:37;6.60;99.90
13606;DHT22;6874;52.084;5.090;2023-12-20T05:56:02;6.60;99.90
13606;DHT22;6874;52.084;5.090;2023-12-20T05:58:29;6.60;99.90
13606;DHT22;6874;52.084;5.090;2023-12-20T06:00:54;6.60;99.90
13606;DHT22;6874;52.084;5.090;2023-12-20T06:03:20;6.60;99.90
13606;DHT22;6874;52.084;5.090;2023-12-20T06:05:45;6.60;99.90
13606;DHT22;6874;52.084;5.090;2023-12-20T06:08:11;6.60;99.90
13606;DHT22;6874;52.084;5.090;2023-12-20T06:10:37;6.60;99.90
13606;DHT22;6874;52.084;5.090;2023-12-20T06:13:03;6.60;99.90
13606;DHT22;6874;52.084;5.090;2023-12-20T06:15:30;6.60;99.90
13606;DHT22;6874;52.084;5.090;2023-12-20T06:17:55;6.60;99.90
13606;DHT22;6874;52.084;5.090;2023-12-20T06:20:21;6.60;99.90
13606;DHT22;6874;52.084;5.090;2023-12-20T06:22:46;6.70;99.90
13606;DHT22;6874;52.084;5.090;2023-12-20T06:25:12;6.70;99.90
13606;DHT22;6874;52.084;5.090;2023-12-20T06:27:38;6.70;99.90
13606;DHT22;6874;52.084;5.090;2023-12-20T06:30:03;6.70;99.90
13606;DHT22;6874;52.084;5.090;2023-12-20T06:32:29;6.70;99.90
13606;DHT22;6874;52.084;5.090;2023-12-20T06:34:55;6.70;99.90
13606;DHT22;6874;52.084;5.090;2023-12-20T06:37:21;6.70;99.90
13606;DHT22;6874;52.084;5.090;2023-12-20T06:39:46;6.70;99.90
13606;DHT22;6874;52.084;5.090;2023-12-20T06:42:12;6.70;99.90
13606;DHT22;6874;52.084;5.090;2023-12-20T06:44:38;6.70;99.90
13606;DHT22;6874;52.084;5.090;2023-12-20T06:47:04;6.70;99.90
13606;DHT22;6874;52.084;5.090;2023-12-20T06:49:30;6.80;99.90
13606;DHT22;6874;52.084;5.090;2023-12-20T06:51:55;6.80;99.90
13606;DHT22;6874;52.084;5.090;2023-12-20T06:54:21;6.80;99.90
13606;DHT22;6874;52.084;5.090;2023-12-20T06:56:46;6.70;99.90
13606;DHT22;6874;52.084;5.090;2023-12-20T06:59:12;6.80;99.90
13606;DHT22;6874;52.084;5.090;2023-12-20T07:01:37;6.80;99.90
13606;DHT22;6874;52.084;5.090;2023-12-20T07:04:03;6.80;99.90
13606;DHT22;6874;52.084;5.090;2023-12-20T07:06:29;6.80;99.90
13606;DHT22;6874;52.084;5.090;2023-12-20T07:08:54;6.80;99.90
13606;DHT22;6874;52.084;5.090;2023-12-20T07:11:20;6.80;99.90
13606;DHT22;6874;52.084;5.090;2023-12-20T07:13:45;6.80;99.90
13606;DHT22;6874;52.084;5.090;2023-12-20T07:16:11;6.80;99.90
13606;DHT22;6874;52.084;5.090;2023-12-20T07:18:37;6.80;99.90
13606;DHT22;6874;52.084;5.090;2023-12-20T07:21:03;6.80;99.90
13606;DHT22;6874;52.084;5.090;2023-12-20T07:23:28;6.80;99.90
13606;DHT22;6874;52.084;5.090;2023-12-20T07:25:54;6.80;99.90
13606;DHT22;6874;52.084;5.090;2023-12-20T07:28:20;6.80;99.90
13606;DHT22;6874;52.084;5.090;2023-12-20T07:30:45;6.80;99.90
13606;DHT22;6874;52.084;5.090;2023-12-20T07:33:11;6.90;99.90
13606;DHT22;6874;52.084;5.090;2023-12-20T07:35:37;6.90;99.90
13606;DHT22;6874;52.084;5.090;2023-12-20T07:38:03;6.80;99.90
13606;DHT22;6874;52.084;5.090;2023-12-20T07:40:29;6.90;99.90
13606;DHT22;6874;52.084;5.090;2023-12-20T07:42:54;6.90;99.90
13606;DHT22;6874;52.084;5.090;2023-12-20T07:45:20;6.90;99.90
13606;DHT22;6874;52.084;5.090;2023-12-20T07:47:45;6.90;99.90
13606;DHT22;6874;52.084;5.090;2023-12-20T07:50:11;6.90;99.90
13606;DHT22;6874;52.084;5.090;2023-12-20T07:52:37;6.90;99.90
13606;DHT22;6874;52.084;5.090;2023-12-20T07:55:02;6.90;99.90
13606;DHT22;6874;52.084;5.090;2023-12-20T07:57:29;6.90;99.90
13606;DHT22;6874;52.084;5.090;2023-12-20T07:59:56;6.90;99.90
13606;DHT22;6874;52.084;5.090;2023-12-20T08:02:21;6.90;99.90
13606;DHT22;6874;52.084;5.090;2023-12-20T08:04:47;6.90;99.90
13606;DHT22;6874;52.084;5.090;2023-12-20T08:07:12;6.90;99.90
13606;DHT22;6874;52.084;5.090;2023-12-20T08:09:38;6.90;99.90
13606;DHT22;6874;52.084;5.090;2023-12-20T08:12:03;6.90;99.90
13606;DHT22;6874;52.084;5.090;2023-12-20T08:14:29;7.00;99.90
13606;DHT22;6874;52.084;5.090;2023-12-20T08:16:55;7.00;99.90
13606;DHT22;6874;52.084;5.090;2023-12-20T08:19:20;7.00;99.90
13606;DHT22;6874;52.084;5.090;2023-12-20T08:21:46;7.00;99.90
13606;DHT22;6874;52.084;5.090;2023-12-20T08:24:11;6.90;99.90
13606;DHT22;6874;52.084;5.090;2023-12-20T08:26:37;7.00;99.90
13606;DHT22;6874;52.084;5.090;2023-12-20T08:29:02;7.00;99.90
13606;DHT22;6874;52.084;5.090;2023-12-20T08:31:28;7.00;99.90
13606;DHT22;6874;52.084;5.090;2023-12-20T08:33:53;7.00;99.90
13606;DHT22;6874;52.084;5.090;2023-12-20T08:36:19;7.00;99.90
13606;DHT22;6874;52.084;5.090;2023-12-20T08:38:46;7.00;99.90
13606;DHT22;6874;52.084;5.090;2023-12-20T08:41:12;7.00;99.90
13606;DHT22;6874;52.084;5.090;2023-12-20T08:43:38;7.00;99.90
13606;DHT22;6874;52.084;5.090;2023-12-20T08:46:06;7.00;99.90
13606;DHT22;6874;52.084;5.090;2023-12-20T08:48:31;7.00;99.90
13606;DHT22;6874;52.084;5.090;2023-12-20T08:50:57;7.00;99.90
13606;DHT22;6874;52.084;5.090;2023-12-20T08:53:22;7.00;99.90
13606;DHT22;6874;52.084;5.090;2023-12-20T08:55:48;7.10;99.90
13606;DHT22;6874;52.084;5.090;2023-12-20T08:58:14;7.10;99.90
13606;DHT22;6874;52.084;5.090;2023-12-20T09:00:40;7.00;99.90
13606;DHT22;6874;52.084;5.090;2023-12-20T09:03:05;7.10;99.90
13606;DHT22;6874;52.084;5.090;2023-12-20T09:05:31;7.10;99.90
13606;DHT22;6874;52.084;5.090;2023-12-20T09:07:57;7.10;99.90
13606;DHT22;6874;52.084;5.090;2023-12-20T09:10:22;7.10;99.90
13606;DHT22;6874;52.084;5.090;2023-12-20T09:12:51;7.10;99.90
13606;DHT22;6874;52.084;5.090;2023-12-20T09:15:22;7.20;99.90
13606;DHT22;6874;52.084;5.090;2023-12-20T09:17:48;7.10;99.90
13606;DHT22;6874;52.084;5.090;2023-12-20T09:20:13;7.10;99.90
13606;DHT22;6874;52.084;5.090;2023-12-20T09:22:39;7.20;99.90
13606;DHT22;6874;52.084;5.090;2023-12-20T09:25:05;7.20;99.90
13606;DHT22;6874;52.084;5.090;2023-12-20T09:27:31;7.20;99.90
13606;DHT22;6874;52.084;5.090;2023-12-20T09:29:56;7.20;99.90
13606;DHT22;6874;52.084;5.090;2023-12-20T09:32:22;7.20;99.90
13606;DHT22;6874;52.084;5.090;2023-12-20T09:34:47;7.20;99.90
13606;DHT22;6874;52.084;5.090;2023-12-20T09:37:13;7.20;99.90
13606;DHT22;6874;52.084;5.090;2023-12-20T09:39:39;7.30;99.90
13606;DHT22;6874;52.084;5.090;2023-12-20T09:42:06;7.30;99.90
13606;DHT22;6874;52.084;5.090;2023-12-20T09:44:32;7.30;99.90
13606;DHT22;6874;52.084;5.090;2023-12-20T09:47:02;7.30;99.90
13606;DHT22;6874;52.084;5.090;2023-12-20T09:49:29;7.30;99.90
13606;DHT22;6874;52.084;5.090;2023-12-20T09:51:56;7.30;99.90
13606;DHT22;6874;52.084;5.090;2023-12-20T09:54:22;7.30;99.90
13606;DHT22;6874;52.084;5.090;2023-12-20T09:56:48;7.30;99.90
13606;DHT22;6874;52.084;5.090;2023-12-20T09:59:14;7.30;99.90
13606;DHT22;6874;52.084;5.090;2023-12-20T10:01:41;7.40;99.90
13606;DHT22;6874;52.084;5.090;2023-12-20T10:04:08;7.40;99.90
13606;DHT22;6874;52.084;5.090;2023-12-20T10:06:40;7.40;99.90
13606;DHT22;6874;52.084;5.090;2023-12-20T10:09:06;7.40;99.90
13606;DHT22;6874;52.084;5.090;2023-12-20T10:11:31;7.40;99.90
13606;DHT22;6874;52.084;5.090;2023-12-20T10:14:00;7.40;99.90
13606;DHT22;6874;52.084;5.090;2023-12-20T10:16:28;7.40;99.90
13606;DHT22;6874;52.084;5.090;2023-12-20T10:18:55;7.40;99.90
13606;DHT22;6874;52.084;5.090;2023-12-20T10:21:21;7.50;99.90
13606;DHT22;6874;52.084;5.090;2023-12-20T10:23:48;7.50;99.90
13606;DHT22;6874;52.084;5.090;2023-12-20T10:26:25;7.50;99.90
13606;DHT22;6874;52.084;5.090;2023-12-20T10:28:53;7.50;99.90
13606;DHT22;6874;52.084;5.090;2023-12-20T10:31:32;7.50;99.90
13606;DHT22;6874;52.084;5.090;2023-12-20T10:33:59;7.60;99.90
13606;DHT22;6874;52.084;5.090;2023-12-20T10:36:27;7.50;99.90
13606;DHT22;6874;52.084;5.090;2023-12-20T10:38:53;7.60;99.90
13606;DHT22;6874;52.084;5.090;2023-12-20T10:41:25;7.60;99.90
13606;DHT22;6874;52.084;5.090;2023-12-20T10:44:04;7.60;99.90
13606;DHT22;6874;52.084;5.090;2023-12-20T10:46:34;7.60;99.90
13606;DHT22;6874;52.084;5.090;2023-12-20T10:49:02;7.60;99.90
13606;DHT22;6874;52.084;5.090;2023-12-20T10:51:31;7.70;99.90
13606;DHT22;6874;52.084;5.090;2023-12-20T10:53:57;7.70;99.90
13606;DHT22;6874;52.084;5.090;2023-12-20T10:56:22;7.60;99.90
13606;DHT22;6874;52.084;5.090;2023-12-20T10:58:51;7.70;99.90
13606;DHT22;6874;52.084;5.090;2023-12-20T11:01:18;7.70;99.90
13606;DHT22;6874;52.084;5.090;2023-12-20T11:03:53;7.70;99.90
13606;DHT22;6874;52.084;5.090;2023-12-20T11:17:10;7.80;99.90
13606;DHT22;6874;52.084;5.090;2023-12-20T11:22:29;7.80;99.90
13606;DHT22;6874;52.084;5.090;2023-12-20T11:24:59;7.90;99.90
13606;DHT22;6874;52.084;5.090;2023-12-20T11:27:27;7.90;99.90
13606;DHT22;6874;52.084;5.090;2023-12-20T11:29:54;7.90;99.90
13606;DHT22;6874;52.084;5.090;2023-12-20T11:37:37;8.00;99.90
13606;DHT22;6874;52.084;5.090;2023-12-20T11:40:05;8.00;99.90
13606;DHT22;6874;52.084;5.090;2023-12-20T11:42:39;8.00;99.90
13606;DHT22;6874;52.084;5.090;2023-12-20T11:45:17;8.00;99.90
13606;DHT22;6874;52.084;5.090;2023-12-20T11:47:46;8.00;99.90
13606;DHT22;6874;52.084;5.090;2023-12-20T11:50:13;8.00;99.90
13606;DHT22;6874;52.084;5.090;2023-12-20T11:52:39;8.00;99.90
13606;DHT22;6874;52.084;5.090;2023-12-20T11:55:05;8.10;99.90
13606;DHT22;6874;52.084;5.090;2023-12-20T11:57:31;8.10;99.90
13606;DHT22;6874;52.084;5.090;2023-12-20T11:59:57;8.10;99.90
13606;DHT22;6874;52.084;5.090;2023-12-20T12:02:23;8.10;99.90
13606;DHT22;6874;52.084;5.090;2023-12-20T12:04:49;8.10;99.90
13606;DHT22;6874;52.084;5.090;2023-12-20T12:07:16;8.10;99.90
13606;DHT22;6874;52.084;5.090;2023-12-20T12:09:42;8.20;99.90
13606;DHT22;6874;52.084;5.090;2023-12-20T12:12:08;8.10;99.90
13606;DHT22;6874;52.084;5.090;2023-12-20T12:14:34;8.10;99.90
13606;DHT22;6874;52.084;5.090;2023-12-20T12:17:02;8.20;99.90
13606;DHT22;6874;52.084;5.090;2023-12-20T12:19:28;8.20;99.90
13606;DHT22;6874;52.084;5.090;2023-12-20T12:22:10;8.20;99.90
13606;DHT22;6874;52.084;5.090;2023-12-20T12:24:39;8.20;99.90
13606;DHT22;6874;52.084;5.090;2023-12-20T12:27:08;8.20;99.90
13606;DHT22;6874;52.084;5.090;2023-12-20T12:29:34;8.20;99.90
13606;DHT22;6874;52.084;5.090;2023-12-20T12:32:01;8.20;99.90
13606;DHT22;6874;52.084;5.090;2023-12-20T12:34:29;8.30;99.90
13606;DHT22;6874;52.084;5.090;2023-12-20T12:36:56;8.30;99.90
13606;DHT22;6874;52.084;5.090;2023-12-20T12:39:23;8.20;99.90
13606;DHT22;6874;52.084;5.090;2023-12-20T12:41:50;8.30;99.90
13606;DHT22;6874;52.084;5.090;2023-12-20T12:44:15;8.30;99.90
13606;DHT22;6874;52.084;5.090;2023-12-20T12:46:41;8.30;99.90
13606;DHT22;6874;52.084;5.090;2023-12-20T12:49:07;8.30;99.90
13606;DHT22;6874;52.084;5.090;2023-12-20T12:51:32;8.30;99.90
13606;DHT22;6874;52.084;5.090;2023-12-20T12:53:58;8.40;99.90
13606;DHT22;6874;52.084;5.090;2023-12-20T12:56:23;8.40;99.90
13606;DHT22;6874;52.084;5.090;2023-12-20T12:58:49;8.40;99.90
13606;DHT22;6874;52.084;5.090;2023-12-20T13:01:15;8.40;99.90
13606;DHT22;6874;52.084;5.090;2023-12-20T13:03:40;8.40;99.90
13606;DHT22;6874;52.084;5.090;2023-12-20T13:06:06;8.40;99.90
13606;DHT22;6874;52.084;5.090;2023-12-20T13:08:34;8.40;99.90
13606;DHT22;6874;52.084;5.090;2023-12-20T13:10:59;8.40;99.90
13606;DHT22;6874;52.084;5.090;2023-12-20T13:13:26;8.40;99.90
13606;DHT22;6874;52.084;5.090;2023-12-20T13:15:52;8.40;99.90
13606;DHT22;6874;52.084;5.090;2023-12-20T13:18:20;8.40;99.90
13606;DHT22;6874;52.084;5.090;2023-12-20T13:20:47;8.40;99.90
13606;DHT22;6874;52.084;5.090;2023-12-20T13:23:12;8.40;99.90
13606;DHT22;6874;52.084;5.090;2023-12-20T13:25:38;8.40;99.90
13606;DHT22;6874;52.084;5.090;2023-12-20T13:28:04;8.40;99.90
13606;DHT22;6874;52.084;5.090;2023-12-20T13:30:30;8.40;99.90
13606;DHT22;6874;52.084;5.090;2023-12-20T13:32:55;8.40;99.90
13606;DHT22;6874;52.084;5.090;2023-12-20T13:35:21;8.40;99.90
13606;DHT22;6874;52.084;5.090;2023-12-20T13:37:47;8.40;99.90
13606;DHT22;6874;52.084;5.090;2023-12-20T13:40:12;8.40;99.90
13606;DHT22;6874;52.084;5.090;2023-12-20T13:42:39;8.40;99.90
13606;DHT22;6874;52.084;5.090;2023-12-20T13:45:05;8.50;99.90
13606;DHT22;6874;52.084;5.090;2023-12-20T13:47:32;8.40;99.90
13606;DHT22;6874;52.084;5.090;2023-12-20T13:49:57;8.50;99.90
13606;DHT22;6874;52.084;5.090;2023-12-20T13:52:23;8.50;99.90
13606;DHT22;6874;52.084;5.090;2023-12-20T13:54:48;8.50;99.90
13606;DHT22;6874;52.084;5.090;2023-12-20T13:57:14;8.50;99.90
13606;DHT22;6874;52.084;5.090;2023-12-20T13:59:40;8.50;99.90
13606;DHT22;6874;52.084;5.090;2023-12-20T14:02:05;8.50;99.90
13606;DHT22;6874;52.084;5.090;2023-12-20T14:04:31;8.50;99.90
13606;DHT22;6874;52.084;5.090;2023-12-20T14:06:57;8.50;99.90
13606;DHT22;6874;52.084;5.090;2023-12-20T14:09:23;8.50;99.90
13606;DHT22;6874;52.084;5.090;2023-12-20T14:11:48;8.50;99.90
13606;DHT22;6874;52.084;5.090;2023-12-20T14:14:14;8.50;99.90
13606;DHT22;6874;52.084;5.090;2023-12-20T14:16:39;8.50;99.90
13606;DHT22;6874;52.084;5.090;2023-12-20T14:19:05;8.50;99.90
13606;DHT22;6874;52.084;5.090;2023-12-20T14:21:33;8.50;99.90
13606;DHT22;6874;52.084;5.090;2023-12-20T14:23:58;8.50;99.90
13606;DHT22;6874;52.084;5.090;2023-12-20T14:26:24;8.50;99.90
13606;DHT22;6874;52.084;5.090;2023-12-20T14:28:50;8.50;99.90
13606;DHT22;6874;52.084;5.090;2023-12-20T14:31:15;8.50;99.90
13606;DHT22;6874;52.084;5.090;2023-12-20T14:33:41;8.50;99.90
13606;DHT22;6874;52.084;5.090;2023-12-20T14:36:07;8.50;99.90
13606;DHT22;6874;52.084;5.090;2023-12-20T14:38:34;8.50;99.90
13606;DHT22;6874;52.084;5.090;2023-12-20T14:41:00;8.50;99.90
13606;DHT22;6874;52.084;5.090;2023-12-20T14:43:26;8.50;99.90
13606;DHT22;6874;52.084;5.090;2023-12-20T14:45:52;8.50;99.90
13606;DHT22;6874;52.084;5.090;2023-12-20T14:48:17;8.50;99.90
13606;DHT22;6874;52.084;5.090;2023-12-20T14:50:43;8.50;99.90
13606;DHT22;6874;52.084;5.090;2023-12-20T14:53:09;8.50;99.90
13606;DHT22;6874;52.084;5.090;2023-12-20T14:55:35;8.50;99.90
13606;DHT22;6874;52.084;5.090;2023-12-20T14:58:01;8.50;99.90
13606;DHT22;6874;52.084;5.090;2023-12-20T15:00:26;8.50;99.90
13606;DHT22;6874;52.084;5.090;2023-12-20T15:02:52;8.50;99.90
13606;DHT22;6874;52.084;5.090;2023-12-20T15:05:19;8.50;99.90
13606;DHT22;6874;52.084;5.090;2023-12-20T15:07:45;8.50;99.90
13606;DHT22;6874;52.084;5.090;2023-12-20T15:10:13;8.50;99.90
13606;DHT22;6874;52.084;5.090;2023-12-20T15:12:39;8.50;99.90
13606;DHT22;6874;52.084;5.090;2023-12-20T15:15:05;8.50;99.90
13606;DHT22;6874;52.084;5.090;2023-12-20T15:17:30;8.50;99.90
13606;DHT22;6874;52.084;5.090;2023-12-20T15:19:56;8.50;99.90
13606;DHT22;6874;52.084;5.090;2023-12-20T15:22:22;8.50;99.90
13606;DHT22;6874;52.084;5.090;2023-12-20T15:24:47;8.50;99.90
13606;DHT22;6874;52.084;5.090;2023-12-20T15:27:13;8.50;99.90
13606;DHT22;6874;52.084;5.090;2023-12-20T15:29:39;8.50;99.90
13606;DHT22;6874;52.084;5.090;2023-12-20T15:32:05;8.50;99.90
13606;DHT22;6874;52.084;5.090;2023-12-20T15:34:30;8.50;99.90
13606;DHT22;6874;52.084;5.090;2023-12-20T15:36:57;8.50;99.90
13606;DHT22;6874;52.084;5.090;2023-12-20T15:39:22;8.50;99.90
13606;DHT22;6874;52.084;5.090;2023-12-20T15:41:48;8.50;99.90
13606;DHT22;6874;52.084;5.090;2023-12-20T15:44:14;8.50;99.90
13606;DHT22;6874;52.084;5.090;2023-12-20T15:46:40;8.50;99.90
13606;DHT22;6874;52.084;5.090;2023-12-20T15:49:07;8.50;99.90
13606;DHT22;6874;52.084;5.090;2023-12-20T15:51:32;8.50;99.90
13606;DHT22;6874;52.084;5.090;2023-12-20T15:53:58;8.50;99.90
13606;DHT22;6874;52.084;5.090;2023-12-20T15:56:23;8.50;99.90
13606;DHT22;6874;52.084;5.090;2023-12-20T15:58:49;8.50;99.90
13606;DHT22;6874;52.084;5.090;2023-12-20T16:01:17;8.40;99.90
13606;DHT22;6874;52.084;5.090;2023-12-20T16:03:42;8.50;99.90
13606;DHT22;6874;52.084;5.090;2023-12-20T16:06:09;8.50;99.90
13606;DHT22;6874;52.084;5.090;2023-12-20T16:08:35;8.50;99.90
13606;DHT22;6874;52.084;5.090;2023-12-20T16:11:00;8.50;99.90
13606;DHT22;6874;52.084;5.090;2023-12-20T16:13:26;8.50;99.90